sensor_id;sensor_type;location;lat;lon;timestamp;P1;durP1;ratioP1;P2;durP2;ratioP2
12812;SDS011;6471;50.932;6.934;2023-03-20T00:00:55;21.10;;;13.90;;
12812;SDS011;6471;50.932;6.934;2023-03-20T00:03:22;21.53;;;13.50;;
12812;SDS011;6471;50.932;6.934;2023-03-20T00:05:48;21.03;;;13.23;;
12812;SDS011;6471;50.932;6.934;2023-03-20T00:08:15;18.73;;;12.73;;
12812;SDS011;6471;50.932;6.934;2023-03-20T00:10:42;21.27;;;13.87;;
12812;SDS011;6471;50.932;6.934;2023-03-20T00:13:13;17.73;;;12.60;;
12812;SDS011;6471;50.932;6.934;2023-03-20T00:15:41;19.10;;;12.93;;
12812;SDS011;6471;50.932;6.934;2023-03-20T00:18:15;19.80;;;13.57;;
12812;SDS011;6471;50.932;6.934;2023-03-20T00:20:42;18.87;;;12.33;;
12812;SDS011;6471;50.932;6.934;2023-03-20T00:23:08;15.83;;;11.13;;
12812;SDS011;6471;50.932;6.934;2023-03-20T00:25:34;17.23;;;11.37;;
12812;SDS011;6471;50.932;6.934;2023-03-20T00:28:03;19.47;;;12.80;;
12812;SDS011;6471;50.932;6.934;2023-03-20T00:30:36;18.83;;;12.40;;
12812;SDS011;6471;50.932;6.934;2023-03-20T00:33:02;19.87;;;13.20;;
12812;SDS011;6471;50.932;6.934;2023-03-20T00:35:29;20.40;;;13.03;;
12812;SDS011;6471;50.932;6.934;2023-03-20T00:37:56;17.53;;;12.03;;
12812;SDS011;6471;50.932;6.934;2023-03-20T00:40:23;16.37;;;11.07;;
12812;SDS011;6471;50.932;6.934;2023-03-20T00:42:54;17.20;;;11.97;;
12812;SDS011;6471;50.932;6.934;2023-03-20T00:45:21;17.60;;;11.67;;
12812;SDS011;6471;50.932;6.934;2023-03-20T00:47:50;20.27;;;13.33;;
12812;SDS011;6471;50.932;6.934;2023-03-20T00:52:42;17.07;;;10.90;;
12812;SDS011;6471;50.932;6.934;2023-03-20T00:55:09;18.27;;;11.67;;
12812;SDS011;6471;50.932;6.934;2023-03-20T00:57:37;18.83;;;12.67;;
12812;SDS011;6471;50.932;6.934;2023-03-20T01:00:06;20.43;;;13.43;;
12812;SDS011;6471;50.932;6.934;2023-03-20T01:02:32;26.17;;;15.67;;
12812;SDS011;6471;50.932;6.934;2023-03-20T01:04:59;23.00;;;15.07;;
12812;SDS011;6471;50.932;6.934;2023-03-20T01:07:26;21.07;;;14.10;;
12812;SDS011;6471;50.932;6.934;2023-03-20T01:09:52;20.23;;;13.87;;
12812;SDS011;6471;50.932;6.934;2023-03-20T01:12:18;25.50;;;15.70;;
12812;SDS011;6471;50.932;6.934;2023-03-20T01:14:45;22.07;;;13.87;;
12812;SDS011;6471;50.932;6.934;2023-03-20T01:17:16;19.70;;;12.73;;
12812;SDS011;6471;50.932;6.934;2023-03-20T01:19:42;21.73;;;13.80;;
12812;SDS011;6471;50.932;6.934;2023-03-20T01:22:08;20.03;;;12.07;;
12812;SDS011;6471;50.932;6.934;2023-03-20T01:24:35;17.87;;;12.07;;
12812;SDS011;6471;50.932;6.934;2023-03-20T01:27:01;19.90;;;12.33;;
12812;SDS011;6471;50.932;6.934;2023-03-20T01:29:29;20.07;;;13.30;;
12812;SDS011;6471;50.932;6.934;2023-03-20T01:31:56;19.17;;;12.13;;
12812;SDS011;6471;50.932;6.934;2023-03-20T01:34:22;20.63;;;14.10;;
12812;SDS011;6471;50.932;6.934;2023-03-20T01:36:54;24.40;;;14.60;;
12812;SDS011;6471;50.932;6.934;2023-03-20T01:39:22;20.23;;;12.63;;
12812;SDS011;6471;50.932;6.934;2023-03-20T01:41:53;19.03;;;13.43;;
12812;SDS011;6471;50.932;6.934;2023-03-20T01:44:21;18.10;;;12.10;;
12812;SDS011;6471;50.932;6.934;2023-03-20T01:46:48;18.70;;;11.23;;
12812;SDS011;6471;50.932;6.934;2023-03-20T01:51:44;15.07;;;10.00;;
12812;SDS011;6471;50.932;6.934;2023-03-20T01:54:14;15.00;;;9.63;;
12812;SDS011;6471;50.932;6.934;2023-03-20T01:56:46;13.63;;;8.77;;
12812;SDS011;6471;50.932;6.934;2023-03-20T01:59:16;14.07;;;9.30;;
12812;SDS011;6471;50.932;6.934;2023-03-20T02:01:43;14.00;;;8.57;;
12812;SDS011;6471;50.932;6.934;2023-03-20T02:04:10;13.53;;;9.20;;
12812;SDS011;6471;50.932;6.934;2023-03-20T02:06:36;12.87;;;8.97;;
12812;SDS011;6471;50.932;6.934;2023-03-20T02:09:04;13.90;;;9.23;;
12812;SDS011;6471;50.932;6.934;2023-03-20T02:11:30;13.40;;;9.30;;
12812;SDS011;6471;50.932;6.934;2023-03-20T02:13:57;12.33;;;8.70;;
12812;SDS011;6471;50.932;6.934;2023-03-20T02:16:24;12.07;;;8.10;;
12812;SDS011;6471;50.932;6.934;2023-03-20T02:18:50;11.67;;;7.97;;
12812;SDS011;6471;50.932;6.934;2023-03-20T02:29:31;12.07;;;8.37;;
12812;SDS011;6471;50.932;6.934;2023-03-20T02:34:44;12.23;;;8.33;;
12812;SDS011;6471;50.932;6.934;2023-03-20T02:42:34;11.37;;;7.47;;
12812;SDS011;6471;50.932;6.934;2023-03-20T02:45:15;9.73;;;6.90;;
12812;SDS011;6471;50.932;6.934;2023-03-20T02:47:51;10.77;;;6.57;;
12812;SDS011;6471;50.932;6.934;2023-03-20T02:53:02;11.73;;;7.87;;
12812;SDS011;6471;50.932;6.934;2023-03-20T02:58:27;9.93;;;6.77;;
12812;SDS011;6471;50.932;6.934;2023-03-20T03:01:09;9.33;;;6.60;;
12812;SDS011;6471;50.932;6.934;2023-03-20T03:03:37;8.97;;;6.30;;
12812;SDS011;6471;50.932;6.934;2023-03-20T03:08:40;9.23;;;6.00;;
12812;SDS011;6471;50.932;6.934;2023-03-20T03:11:08;10.73;;;7.00;;
12812;SDS011;6471;50.932;6.934;2023-03-20T03:13:35;11.23;;;7.60;;
12812;SDS011;6471;50.932;6.934;2023-03-20T03:16:04;10.33;;;7.07;;
12812;SDS011;6471;50.932;6.934;2023-03-20T03:18:32;10.73;;;7.23;;
12812;SDS011;6471;50.932;6.934;2023-03-20T03:21:00;10.93;;;7.33;;
12812;SDS011;6471;50.932;6.934;2023-03-20T03:23:44;11.90;;;7.67;;
12812;SDS011;6471;50.932;6.934;2023-03-20T03:26:12;12.00;;;7.70;;
12812;SDS011;6471;50.932;6.934;2023-03-20T03:28:39;9.53;;;6.83;;
12812;SDS011;6471;50.932;6.934;2023-03-20T03:31:08;10.60;;;7.20;;
12812;SDS011;6471;50.932;6.934;2023-03-20T03:33:37;9.97;;;6.73;;
12812;SDS011;6471;50.932;6.934;2023-03-20T03:38:43;8.87;;;6.20;;
12812;SDS011;6471;50.932;6.934;2023-03-20T03:41:29;9.37;;;6.47;;
12812;SDS011;6471;50.932;6.934;2023-03-20T03:44:10;9.73;;;6.77;;
12812;SDS011;6471;50.932;6.934;2023-03-20T03:46:39;9.63;;;7.00;;
12812;SDS011;6471;50.932;6.934;2023-03-20T03:49:07;9.53;;;6.77;;
12812;SDS011;6471;50.932;6.934;2023-03-20T03:51:35;9.43;;;6.40;;
12812;SDS011;6471;50.932;6.934;2023-03-20T03:54:05;8.53;;;6.07;;
12812;SDS011;6471;50.932;6.934;2023-03-20T03:56:32;11.73;;;7.70;;
12812;SDS011;6471;50.932;6.934;2023-03-20T03:59:01;13.30;;;8.60;;
12812;SDS011;6471;50.932;6.934;2023-03-20T04:01:30;11.07;;;7.60;;
12812;SDS011;6471;50.932;6.934;2023-03-20T04:03:59;12.53;;;7.73;;
12812;SDS011;6471;50.932;6.934;2023-03-20T04:06:26;17.07;;;10.43;;
12812;SDS011;6471;50.932;6.934;2023-03-20T04:08:52;13.70;;;9.33;;
12812;SDS011;6471;50.932;6.934;2023-03-20T04:11:19;13.43;;;8.93;;
12812;SDS011;6471;50.932;6.934;2023-03-20T04:13:46;12.40;;;8.10;;
12812;SDS011;6471;50.932;6.934;2023-03-20T04:16:12;13.57;;;8.13;;
12812;SDS011;6471;50.932;6.934;2023-03-20T04:18:39;17.07;;;9.57;;
12812;SDS011;6471;50.932;6.934;2023-03-20T04:21:06;14.20;;;9.57;;
12812;SDS011;6471;50.932;6.934;2023-03-20T04:23:32;13.97;;;9.07;;
12812;SDS011;6471;50.932;6.934;2023-03-20T04:25:58;15.40;;;9.50;;
12812;SDS011;6471;50.932;6.934;2023-03-20T04:28:25;14.20;;;8.93;;
12812;SDS011;6471;50.932;6.934;2023-03-20T04:30:54;13.73;;;8.70;;
12812;SDS011;6471;50.932;6.934;2023-03-20T04:33:21;12.43;;;7.87;;
12812;SDS011;6471;50.932;6.934;2023-03-20T04:35:47;12.70;;;8.13;;
12812;SDS011;6471;50.932;6.934;2023-03-20T04:38:14;13.47;;;8.53;;
12812;SDS011;6471;50.932;6.934;2023-03-20T04:40:41;14.63;;;8.53;;
12812;SDS011;6471;50.932;6.934;2023-03-20T04:43:07;13.07;;;8.20;;
12812;SDS011;6471;50.932;6.934;2023-03-20T04:45:33;12.27;;;7.30;;
12812;SDS011;6471;50.932;6.934;2023-03-20T04:47:59;9.50;;;6.63;;
12812;SDS011;6471;50.932;6.934;2023-03-20T04:50:25;10.00;;;6.50;;
12812;SDS011;6471;50.932;6.934;2023-03-20T04:52:51;10.10;;;6.67;;
12812;SDS011;6471;50.932;6.934;2023-03-20T04:55:17;8.50;;;5.97;;
12812;SDS011;6471;50.932;6.934;2023-03-20T04:57:43;10.03;;;6.17;;
12812;SDS011;6471;50.932;6.934;2023-03-20T05:00:10;8.07;;;5.60;;
12812;SDS011;6471;50.932;6.934;2023-03-20T05:02:38;7.87;;;5.23;;
12812;SDS011;6471;50.932;6.934;2023-03-20T05:05:05;9.30;;;6.30;;
12812;SDS011;6471;50.932;6.934;2023-03-20T05:07:31;9.53;;;6.10;;
12812;SDS011;6471;50.932;6.934;2023-03-20T05:09:58;10.00;;;6.00;;
12812;SDS011;6471;50.932;6.934;2023-03-20T05:12:24;12.30;;;6.73;;
12812;SDS011;6471;50.932;6.934;2023-03-20T05:14:51;9.00;;;5.93;;
12812;SDS011;6471;50.932;6.934;2023-03-20T05:17:19;9.63;;;6.40;;
12812;SDS011;6471;50.932;6.934;2023-03-20T05:19:45;9.13;;;5.60;;
12812;SDS011;6471;50.932;6.934;2023-03-20T05:22:12;8.50;;;5.33;;
12812;SDS011;6471;50.932;6.934;2023-03-20T05:24:38;6.97;;;5.03;;
12812;SDS011;6471;50.932;6.934;2023-03-20T05:27:04;7.63;;;5.50;;
12812;SDS011;6471;50.932;6.934;2023-03-20T05:29:30;9.53;;;5.77;;
12812;SDS011;6471;50.932;6.934;2023-03-20T05:31:56;9.57;;;5.60;;
12812;SDS011;6471;50.932;6.934;2023-03-20T05:34:22;12.13;;;7.17;;
12812;SDS011;6471;50.932;6.934;2023-03-20T05:36:48;9.73;;;6.07;;
12812;SDS011;6471;50.932;6.934;2023-03-20T05:39:14;11.33;;;6.93;;
12812;SDS011;6471;50.932;6.934;2023-03-20T05:41:41;9.07;;;6.00;;
12812;SDS011;6471;50.932;6.934;2023-03-20T05:44:07;8.17;;;5.80;;
12812;SDS011;6471;50.932;6.934;2023-03-20T05:46:33;9.37;;;5.70;;
12812;SDS011;6471;50.932;6.934;2023-03-20T05:48:59;9.10;;;5.73;;
12812;SDS011;6471;50.932;6.934;2023-03-20T05:51:26;8.53;;;5.67;;
12812;SDS011;6471;50.932;6.934;2023-03-20T05:53:52;8.47;;;5.50;;
12812;SDS011;6471;50.932;6.934;2023-03-20T05:56:18;9.47;;;5.30;;
12812;SDS011;6471;50.932;6.934;2023-03-20T05:58:44;8.37;;;5.83;;
12812;SDS011;6471;50.932;6.934;2023-03-20T06:01:10;8.70;;;5.87;;
12812;SDS011;6471;50.932;6.934;2023-03-20T06:03:40;9.83;;;6.00;;
12812;SDS011;6471;50.932;6.934;2023-03-20T06:06:06;8.43;;;5.63;;
12812;SDS011;6471;50.932;6.934;2023-03-20T06:08:32;9.27;;;5.80;;
12812;SDS011;6471;50.932;6.934;2023-03-20T06:11:00;10.43;;;5.93;;
12812;SDS011;6471;50.932;6.934;2023-03-20T06:13:26;8.20;;;5.60;;
12812;SDS011;6471;50.932;6.934;2023-03-20T06:15:52;14.73;;;7.37;;
12812;SDS011;6471;50.932;6.934;2023-03-20T06:18:18;10.97;;;7.20;;
12812;SDS011;6471;50.932;6.934;2023-03-20T06:20:44;11.17;;;6.47;;
12812;SDS011;6471;50.932;6.934;2023-03-20T06:23:10;10.47;;;6.63;;
12812;SDS011;6471;50.932;6.934;2023-03-20T06:25:37;10.07;;;6.60;;
12812;SDS011;6471;50.932;6.934;2023-03-20T06:28:03;10.90;;;6.53;;
12812;SDS011;6471;50.932;6.934;2023-03-20T06:30:29;12.27;;;7.73;;
12812;SDS011;6471;50.932;6.934;2023-03-20T06:32:56;12.73;;;7.33;;
12812;SDS011;6471;50.932;6.934;2023-03-20T06:35:22;9.07;;;6.50;;
12812;SDS011;6471;50.932;6.934;2023-03-20T06:37:48;10.77;;;7.03;;
12812;SDS011;6471;50.932;6.934;2023-03-20T06:40:15;10.53;;;6.60;;
12812;SDS011;6471;50.932;6.934;2023-03-20T06:42:41;10.20;;;7.17;;
12812;SDS011;6471;50.932;6.934;2023-03-20T06:45:10;11.47;;;7.83;;
12812;SDS011;6471;50.932;6.934;2023-03-20T06:47:37;10.87;;;7.07;;
12812;SDS011;6471;50.932;6.934;2023-03-20T06:50:03;11.77;;;7.97;;
12812;SDS011;6471;50.932;6.934;2023-03-20T06:52:29;12.97;;;8.10;;
12812;SDS011;6471;50.932;6.934;2023-03-20T06:54:55;11.97;;;6.97;;
12812;SDS011;6471;50.932;6.934;2023-03-20T06:57:22;10.43;;;7.17;;
12812;SDS011;6471;50.932;6.934;2023-03-20T06:59:48;9.40;;;6.50;;
12812;SDS011;6471;50.932;6.934;2023-03-20T07:02:14;13.17;;;8.57;;
12812;SDS011;6471;50.932;6.934;2023-03-20T07:04:40;13.80;;;8.70;;
12812;SDS011;6471;50.932;6.934;2023-03-20T07:07:07;12.33;;;8.00;;
12812;SDS011;6471;50.932;6.934;2023-03-20T07:09:33;12.37;;;8.33;;
12812;SDS011;6471;50.932;6.934;2023-03-20T07:11:59;15.53;;;8.97;;
12812;SDS011;6471;50.932;6.934;2023-03-20T07:14:26;14.90;;;8.80;;
12812;SDS011;6471;50.932;6.934;2023-03-20T07:16:52;12.87;;;8.30;;
12812;SDS011;6471;50.932;6.934;2023-03-20T07:19:20;11.43;;;7.97;;
12812;SDS011;6471;50.932;6.934;2023-03-20T07:21:46;13.80;;;8.70;;
12812;SDS011;6471;50.932;6.934;2023-03-20T07:24:12;13.30;;;8.33;;
12812;SDS011;6471;50.932;6.934;2023-03-20T07:26:39;12.83;;;8.30;;
12812;SDS011;6471;50.932;6.934;2023-03-20T07:29:05;10.20;;;7.00;;
12812;SDS011;6471;50.932;6.934;2023-03-20T07:31:31;11.63;;;6.93;;
12812;SDS011;6471;50.932;6.934;2023-03-20T07:33:57;11.60;;;7.13;;
12812;SDS011;6471;50.932;6.934;2023-03-20T07:36:24;11.07;;;6.90;;
12812;SDS011;6471;50.932;6.934;2023-03-20T07:38:50;10.73;;;7.23;;
12812;SDS011;6471;50.932;6.934;2023-03-20T07:41:16;10.27;;;6.67;;
12812;SDS011;6471;50.932;6.934;2023-03-20T07:43:42;9.30;;;6.50;;
12812;SDS011;6471;50.932;6.934;2023-03-20T07:46:08;9.53;;;6.60;;
12812;SDS011;6471;50.932;6.934;2023-03-20T07:48:34;8.50;;;6.00;;
12812;SDS011;6471;50.932;6.934;2023-03-20T07:51:01;7.23;;;5.53;;
12812;SDS011;6471;50.932;6.934;2023-03-20T07:53:27;7.77;;;5.77;;
12812;SDS011;6471;50.932;6.934;2023-03-20T07:55:53;7.43;;;5.00;;
12812;SDS011;6471;50.932;6.934;2023-03-20T07:58:19;10.63;;;6.20;;
12812;SDS011;6471;50.932;6.934;2023-03-20T08:00:45;8.30;;;5.60;;
12812;SDS011;6471;50.932;6.934;2023-03-20T08:03:11;7.43;;;5.30;;
12812;SDS011;6471;50.932;6.934;2023-03-20T08:05:37;8.37;;;5.67;;
12812;SDS011;6471;50.932;6.934;2023-03-20T08:08:07;8.77;;;5.43;;
12812;SDS011;6471;50.932;6.934;2023-03-20T08:10:33;6.90;;;5.07;;
12812;SDS011;6471;50.932;6.934;2023-03-20T08:13:01;8.00;;;5.40;;
12812;SDS011;6471;50.932;6.934;2023-03-20T08:15:27;8.00;;;4.83;;
12812;SDS011;6471;50.932;6.934;2023-03-20T08:17:53;8.67;;;5.47;;
12812;SDS011;6471;50.932;6.934;2023-03-20T08:20:21;9.43;;;5.37;;
12812;SDS011;6471;50.932;6.934;2023-03-20T08:22:49;10.83;;;6.00;;
12812;SDS011;6471;50.932;6.934;2023-03-20T08:25:15;7.67;;;5.03;;
12812;SDS011;6471;50.932;6.934;2023-03-20T08:27:41;6.93;;;4.67;;
12812;SDS011;6471;50.932;6.934;2023-03-20T08:30:07;7.33;;;4.50;;
12812;SDS011;6471;50.932;6.934;2023-03-20T08:32:34;7.00;;;4.83;;
12812;SDS011;6471;50.932;6.934;2023-03-20T08:35:00;7.47;;;4.93;;
12812;SDS011;6471;50.932;6.934;2023-03-20T08:37:27;7.13;;;5.07;;
12812;SDS011;6471;50.932;6.934;2023-03-20T08:39:53;6.23;;;4.37;;
12812;SDS011;6471;50.932;6.934;2023-03-20T08:42:19;7.00;;;4.53;;
12812;SDS011;6471;50.932;6.934;2023-03-20T08:44:45;7.00;;;4.10;;
12812;SDS011;6471;50.932;6.934;2023-03-20T08:47:12;8.07;;;4.27;;
12812;SDS011;6471;50.932;6.934;2023-03-20T08:49:38;8.10;;;4.20;;
12812;SDS011;6471;50.932;6.934;2023-03-20T08:52:04;4.97;;;3.67;;
12812;SDS011;6471;50.932;6.934;2023-03-20T08:54:30;5.20;;;3.60;;
12812;SDS011;6471;50.932;6.934;2023-03-20T08:56:57;5.77;;;3.50;;
12812;SDS011;6471;50.932;6.934;2023-03-20T08:59:23;4.60;;;3.63;;
12812;SDS011;6471;50.932;6.934;2023-03-20T09:01:50;6.00;;;3.80;;
12812;SDS011;6471;50.932;6.934;2023-03-20T09:04:16;4.80;;;3.83;;
12812;SDS011;6471;50.932;6.934;2023-03-20T09:06:42;7.70;;;4.63;;
12812;SDS011;6471;50.932;6.934;2023-03-20T09:09:08;7.10;;;4.73;;
12812;SDS011;6471;50.932;6.934;2023-03-20T09:11:35;7.47;;;5.03;;
12812;SDS011;6471;50.932;6.934;2023-03-20T09:14:01;7.33;;;5.17;;
12812;SDS011;6471;50.932;6.934;2023-03-20T09:16:27;9.93;;;5.80;;
12812;SDS011;6471;50.932;6.934;2023-03-20T09:18:53;7.17;;;5.07;;
12812;SDS011;6471;50.932;6.934;2023-03-20T09:21:20;11.33;;;6.70;;
12812;SDS011;6471;50.932;6.934;2023-03-20T09:23:46;7.70;;;5.77;;
12812;SDS011;6471;50.932;6.934;2023-03-20T09:26:12;10.03;;;5.87;;
12812;SDS011;6471;50.932;6.934;2023-03-20T09:28:38;8.40;;;6.20;;
12812;SDS011;6471;50.932;6.934;2023-03-20T09:31:04;11.10;;;6.13;;
12812;SDS011;6471;50.932;6.934;2023-03-20T09:33:30;10.07;;;6.07;;
12812;SDS011;6471;50.932;6.934;2023-03-20T09:35:56;8.17;;;5.63;;
12812;SDS011;6471;50.932;6.934;2023-03-20T09:38:22;10.27;;;6.40;;
12812;SDS011;6471;50.932;6.934;2023-03-20T09:43:21;8.43;;;5.83;;
12812;SDS011;6471;50.932;6.934;2023-03-20T09:48:40;7.37;;;4.70;;
12812;SDS011;6471;50.932;6.934;2023-03-20T09:53:49;8.67;;;5.73;;
12812;SDS011;6471;50.932;6.934;2023-03-20T09:56:23;8.47;;;4.90;;
12812;SDS011;6471;50.932;6.934;2023-03-20T09:58:57;8.37;;;5.80;;
12812;SDS011;6471;50.932;6.934;2023-03-20T10:01:25;10.30;;;5.20;;
12812;SDS011;6471;50.932;6.934;2023-03-20T10:03:52;8.13;;;4.73;;
12812;SDS011;6471;50.932;6.934;2023-03-20T10:06:20;8.73;;;5.33;;
12812;SDS011;6471;50.932;6.934;2023-03-20T10:08:46;7.77;;;5.30;;
12812;SDS011;6471;50.932;6.934;2023-03-20T10:21:47;7.23;;;4.60;;
12812;SDS011;6471;50.932;6.934;2023-03-20T10:24:26;7.07;;;4.17;;
12812;SDS011;6471;50.932;6.934;2023-03-20T10:26:53;6.30;;;3.97;;
12812;SDS011;6471;50.932;6.934;2023-03-20T10:32:54;5.53;;;3.07;;
12812;SDS011;6471;50.932;6.934;2023-03-20T10:35:10;6.27;;;3.20;;
12812;SDS011;6471;50.932;6.934;2023-03-20T10:37:47;3.90;;;2.47;;
12812;SDS011;6471;50.932;6.934;2023-03-20T10:42:45;4.00;;;2.40;;
12812;SDS011;6471;50.932;6.934;2023-03-20T10:47:51;3.93;;;2.40;;
12812;SDS011;6471;50.932;6.934;2023-03-20T10:50:20;4.43;;;2.30;;
12812;SDS011;6471;50.932;6.934;2023-03-20T10:52:48;3.97;;;2.13;;
12812;SDS011;6471;50.932;6.934;2023-03-20T10:55:19;4.73;;;2.53;;
12812;SDS011;6471;50.932;6.934;2023-03-20T10:57:49;3.73;;;2.83;;
12812;SDS011;6471;50.932;6.934;2023-03-20T11:00:17;6.17;;;2.80;;
12812;SDS011;6471;50.932;6.934;2023-03-20T11:02:44;4.80;;;2.23;;
12812;SDS011;6471;50.932;6.934;2023-03-20T11:08:03;4.67;;;2.40;;
12812;SDS011;6471;50.932;6.934;2023-03-20T11:10:31;4.57;;;2.63;;
12812;SDS011;6471;50.932;6.934;2023-03-20T11:12:58;6.00;;;2.87;;
12812;SDS011;6471;50.932;6.934;2023-03-20T11:17:58;5.03;;;3.00;;
12812;SDS011;6471;50.932;6.934;2023-03-20T11:20:26;7.20;;;3.10;;
12812;SDS011;6471;50.932;6.934;2023-03-20T11:22:56;8.40;;;3.60;;
12812;SDS011;6471;50.932;6.934;2023-03-20T11:25:27;5.63;;;3.10;;
12812;SDS011;6471;50.932;6.934;2023-03-20T11:27:55;7.23;;;3.60;;
12812;SDS011;6471;50.932;6.934;2023-03-20T11:30:21;5.77;;;3.03;;
12812;SDS011;6471;50.932;6.934;2023-03-20T11:32:48;5.33;;;3.00;;
12812;SDS011;6471;50.932;6.934;2023-03-20T11:37:48;5.23;;;2.93;;
12812;SDS011;6471;50.932;6.934;2023-03-20T11:40:16;8.00;;;3.17;;
12812;SDS011;6471;50.932;6.934;2023-03-20T11:42:54;6.03;;;2.80;;
12812;SDS011;6471;50.932;6.934;2023-03-20T11:45:20;4.83;;;2.63;;
12812;SDS011;6471;50.932;6.934;2023-03-20T11:47:50;3.27;;;2.20;;
12812;SDS011;6471;50.932;6.934;2023-03-20T11:50:34;4.37;;;2.43;;
12812;SDS011;6471;50.932;6.934;2023-03-20T11:53:01;3.87;;;2.50;;
12812;SDS011;6471;50.932;6.934;2023-03-20T11:55:28;5.03;;;2.50;;
12812;SDS011;6471;50.932;6.934;2023-03-20T11:57:56;4.50;;;2.57;;
12812;SDS011;6471;50.932;6.934;2023-03-20T12:00:23;4.93;;;2.90;;
12812;SDS011;6471;50.932;6.934;2023-03-20T12:02:50;4.60;;;2.73;;
12812;SDS011;6471;50.932;6.934;2023-03-20T12:07:49;5.07;;;2.53;;
12812;SDS011;6471;50.932;6.934;2023-03-20T12:10:17;5.10;;;2.33;;
12812;SDS011;6471;50.932;6.934;2023-03-20T12:12:50;3.80;;;2.37;;
12812;SDS011;6471;50.932;6.934;2023-03-20T12:15:35;3.50;;;2.20;;
12812;SDS011;6471;50.932;6.934;2023-03-20T12:23:19;3.90;;;2.23;;
12812;SDS011;6471;50.932;6.934;2023-03-20T12:25:48;3.63;;;2.40;;
12812;SDS011;6471;50.932;6.934;2023-03-20T12:28:17;5.50;;;2.80;;
12812;SDS011;6471;50.932;6.934;2023-03-20T12:30:49;5.90;;;3.20;;
12812;SDS011;6471;50.932;6.934;2023-03-20T12:33:19;7.40;;;3.10;;
12812;SDS011;6471;50.932;6.934;2023-03-20T12:35:46;3.93;;;2.70;;
12812;SDS011;6471;50.932;6.934;2023-03-20T12:38:19;4.07;;;2.57;;
12812;SDS011;6471;50.932;6.934;2023-03-20T12:40:46;5.50;;;2.57;;
12812;SDS011;6471;50.932;6.934;2023-03-20T12:43:15;4.57;;;2.37;;
12812;SDS011;6471;50.932;6.934;2023-03-20T12:45:47;5.17;;;2.77;;
12812;SDS011;6471;50.932;6.934;2023-03-20T12:51:11;4.03;;;2.13;;
12812;SDS011;6471;50.932;6.934;2023-03-20T12:53:52;3.93;;;2.03;;
12812;SDS011;6471;50.932;6.934;2023-03-20T12:58:47;4.00;;;2.20;;
12812;SDS011;6471;50.932;6.934;2023-03-20T13:03:50;4.40;;;2.13;;
12812;SDS011;6471;50.932;6.934;2023-03-20T13:06:29;4.03;;;2.30;;
12812;SDS011;6471;50.932;6.934;2023-03-20T13:11:46;3.60;;;1.63;;
12812;SDS011;6471;50.932;6.934;2023-03-20T13:19:26;1.80;;;1.40;;
12812;SDS011;6471;50.932;6.934;2023-03-20T13:24:47;3.10;;;1.60;;
12812;SDS011;6471;50.932;6.934;2023-03-20T13:27:35;2.73;;;1.47;;
12812;SDS011;6471;50.932;6.934;2023-03-20T13:35:20;4.73;;;1.73;;
12812;SDS011;6471;50.932;6.934;2023-03-20T13:37:49;4.47;;;1.80;;
12812;SDS011;6471;50.932;6.934;2023-03-20T13:40:20;2.67;;;1.50;;
12812;SDS011;6471;50.932;6.934;2023-03-20T13:43:10;2.83;;;1.50;;
12812;SDS011;6471;50.932;6.934;2023-03-20T13:45:39;2.20;;;1.40;;
12812;SDS011;6471;50.932;6.934;2023-03-20T13:48:28;2.10;;;1.30;;
12812;SDS011;6471;50.932;6.934;2023-03-20T14:03:42;2.63;;;1.30;;
12812;SDS011;6471;50.932;6.934;2023-03-20T14:08:54;4.90;;;1.53;;
12812;SDS011;6471;50.932;6.934;2023-03-20T14:13:47;2.13;;;1.20;;
12812;SDS011;6471;50.932;6.934;2023-03-20T14:16:16;2.73;;;1.27;;
12812;SDS011;6471;50.932;6.934;2023-03-20T14:18:43;4.77;;;1.50;;
12812;SDS011;6471;50.932;6.934;2023-03-20T14:21:11;2.73;;;1.50;;
12812;SDS011;6471;50.932;6.934;2023-03-20T14:23:38;2.53;;;1.30;;
12812;SDS011;6471;50.932;6.934;2023-03-20T14:26:16;2.60;;;1.50;;
12812;SDS011;6471;50.932;6.934;2023-03-20T14:28:47;3.70;;;1.90;;
12812;SDS011;6471;50.932;6.934;2023-03-20T14:31:21;3.67;;;1.50;;
12812;SDS011;6471;50.932;6.934;2023-03-20T14:33:57;4.27;;;1.70;;
12812;SDS011;6471;50.932;6.934;2023-03-20T14:36:28;1.87;;;1.30;;
12812;SDS011;6471;50.932;6.934;2023-03-20T14:39:01;2.60;;;1.40;;
12812;SDS011;6471;50.932;6.934;2023-03-20T14:41:56;3.30;;;1.70;;
12812;SDS011;6471;50.932;6.934;2023-03-20T14:44:25;3.10;;;1.37;;
12812;SDS011;6471;50.932;6.934;2023-03-20T14:46:59;2.80;;;1.43;;
12812;SDS011;6471;50.932;6.934;2023-03-20T14:49:33;2.33;;;1.43;;
12812;SDS011;6471;50.932;6.934;2023-03-20T14:52:24;2.33;;;1.40;;
12812;SDS011;6471;50.932;6.934;2023-03-20T14:54:53;2.20;;;1.40;;
12812;SDS011;6471;50.932;6.934;2023-03-20T14:57:28;2.23;;;1.23;;
12812;SDS011;6471;50.932;6.934;2023-03-20T14:59:55;1.80;;;1.30;;
12812;SDS011;6471;50.932;6.934;2023-03-20T15:02:25;2.33;;;1.30;;
12812;SDS011;6471;50.932;6.934;2023-03-20T15:04:52;2.67;;;1.20;;
12812;SDS011;6471;50.932;6.934;2023-03-20T15:07:37;3.33;;;1.53;;
12812;SDS011;6471;50.932;6.934;2023-03-20T15:10:04;4.53;;;1.60;;
12812;SDS011;6471;50.932;6.934;2023-03-20T15:12:33;3.17;;;1.60;;
12812;SDS011;6471;50.932;6.934;2023-03-20T15:15:00;1.70;;;1.33;;
12812;SDS011;6471;50.932;6.934;2023-03-20T15:17:33;3.90;;;1.20;;
12812;SDS011;6471;50.932;6.934;2023-03-20T15:22:30;3.07;;;1.60;;
12812;SDS011;6471;50.932;6.934;2023-03-20T15:24:56;1.97;;;1.37;;
12812;SDS011;6471;50.932;6.934;2023-03-20T15:27:24;1.63;;;1.20;;
12812;SDS011;6471;50.932;6.934;2023-03-20T15:29:53;2.70;;;1.37;;
12812;SDS011;6471;50.932;6.934;2023-03-20T15:32:23;2.57;;;1.50;;
12812;SDS011;6471;50.932;6.934;2023-03-20T15:34:49;3.87;;;1.60;;
12812;SDS011;6471;50.932;6.934;2023-03-20T15:37:17;2.83;;;1.50;;
12812;SDS011;6471;50.932;6.934;2023-03-20T15:39:52;2.97;;;1.50;;
12812;SDS011;6471;50.932;6.934;2023-03-20T15:42:37;2.25;;;1.38;;
12812;SDS011;6471;50.932;6.934;2023-03-20T15:50:35;1.83;;;1.30;;
12812;SDS011;6471;50.932;6.934;2023-03-20T15:53:17;2.67;;;1.60;;
12812;SDS011;6471;50.932;6.934;2023-03-20T15:56:13;2.00;;;1.30;;
12812;SDS011;6471;50.932;6.934;2023-03-20T15:58:51;2.90;;;1.77;;
12812;SDS011;6471;50.932;6.934;2023-03-20T16:01:25;2.73;;;1.50;;
12812;SDS011;6471;50.932;6.934;2023-03-20T16:04:05;2.03;;;1.20;;
12812;SDS011;6471;50.932;6.934;2023-03-20T16:09:46;2.57;;;1.40;;
12812;SDS011;6471;50.932;6.934;2023-03-20T16:12:51;2.40;;;1.53;;
12812;SDS011;6471;50.932;6.934;2023-03-20T16:15:23;1.80;;;1.50;;
12812;SDS011;6471;50.932;6.934;2023-03-20T16:17:52;2.43;;;1.40;;
12812;SDS011;6471;50.932;6.934;2023-03-20T16:20:19;4.07;;;1.70;;
12812;SDS011;6471;50.932;6.934;2023-03-20T16:22:58;3.07;;;1.70;;
12812;SDS011;6471;50.932;6.934;2023-03-20T16:25:25;4.37;;;1.83;;
12812;SDS011;6471;50.932;6.934;2023-03-20T16:27:51;3.23;;;1.67;;
12812;SDS011;6471;50.932;6.934;2023-03-20T16:30:19;3.43;;;1.73;;
12812;SDS011;6471;50.932;6.934;2023-03-20T16:32:50;2.10;;;1.47;;
12812;SDS011;6471;50.932;6.934;2023-03-20T16:35:25;2.10;;;1.47;;
12812;SDS011;6471;50.932;6.934;2023-03-20T16:37:54;2.43;;;1.57;;
12812;SDS011;6471;50.932;6.934;2023-03-20T16:40:21;2.63;;;1.50;;
12812;SDS011;6471;50.932;6.934;2023-03-20T16:42:55;2.20;;;1.70;;
12812;SDS011;6471;50.932;6.934;2023-03-20T16:45:27;2.20;;;1.60;;
12812;SDS011;6471;50.932;6.934;2023-03-20T16:50:54;2.93;;;1.53;;
12812;SDS011;6471;50.932;6.934;2023-03-20T16:53:21;3.43;;;1.60;;
12812;SDS011;6471;50.932;6.934;2023-03-20T16:55:50;2.43;;;1.60;;
12812;SDS011;6471;50.932;6.934;2023-03-20T16:58:17;2.90;;;1.43;;
12812;SDS011;6471;50.932;6.934;2023-03-20T17:03:15;1.77;;;1.30;;
12812;SDS011;6471;50.932;6.934;2023-03-20T17:05:50;3.03;;;1.70;;
12812;SDS011;6471;50.932;6.934;2023-03-20T17:08:21;1.73;;;1.23;;
12812;SDS011;6471;50.932;6.934;2023-03-20T17:10:48;1.73;;;1.33;;
12812;SDS011;6471;50.932;6.934;2023-03-20T17:13:15;1.87;;;1.30;;
12812;SDS011;6471;50.932;6.934;2023-03-20T17:15:41;3.07;;;1.47;;
12812;SDS011;6471;50.932;6.934;2023-03-20T17:18:10;1.83;;;1.37;;